Time;durP1;ratioP1;P1;durP2;ratioP2;P2;SDS_P1;SDS_P2;PMS_P1;PMS_P2;Temp;Humidity;BMP_temperature;BMP_pressure;BME280_temperature;BME280_humidity;BME280_pressure;Samples;Min_cycle;Max_cycle;Signal;HPM_P1;HPM_P2
2021/08/22 00:00:11;;;;;;;3.97;2.22;;;;;;;22.77;58.66;101360.31;4868621;28;123842;-67
2021/08/22 00:02:40;;;;;;;4.60;2.17;;;;;;;22.72;58.75;101361.59;4859157;28;122782;-68
2021/08/22 00:05:08;;;;;;;3.95;2.67;;;;;;;22.67;59.02;101363.84;4871759;28;114467;-67
2021/08/22 00:07:37;;;;;;;2.90;2.33;;;;;;;22.64;59.03;101353.31;4867768;28;114677;-67
2021/08/22 00:10:04;;;;;;;3.63;2.40;;;;;;;22.60;59.16;101357.25;4871464;28;124112;-67
2021/08/22 00:12:31;;;;;;;3.78;2.88;;;;;;;22.59;59.23;101360.97;4859241;28;124312;-67
2021/08/22 00:14:58;;;;;;;4.03;3.13;;;;;;;22.57;59.28;101352.16;4871882;28;115147;-67
2021/08/22 00:17:27;;;;;;;4.40;2.88;;;;;;;22.57;59.27;101346.75;4863048;28;115076;-68
2021/08/22 00:19:54;;;;;;;6.20;3.30;;;;;;;22.54;59.36;101349.72;4866537;28;124497;-68
2021/08/22 00:22:21;;;;;;;4.63;3.25;;;;;;;22.52;59.37;101343.59;4872301;28;123819;-67
2021/08/22 00:24:48;;;;;;;4.75;3.33;;;;;;;22.51;59.56;101339.19;4862818;28;114144;-68
2021/08/22 00:27:15;;;;;;;4.95;3.15;;;;;;;22.50;59.71;101329.38;4869772;28;114431;-68
2021/08/22 00:29:43;;;;;;;4.60;3.25;;;;;;;22.51;59.68;101339.19;4864500;28;124856;-67
2021/08/22 00:32:10;;;;;;;4.40;2.90;;;;;;;22.49;59.77;101341.16;4863642;28;123953;-67
2021/08/22 00:34:37;;;;;;;4.80;3.10;;;;;;;22.47;59.74;101340.44;4869222;28;114147;-67
2021/08/22 00:37:06;;;;;;;4.95;3.10;;;;;;;22.45;59.91;101345.13;4871490;28;113995;-67
2021/08/22 00:39:33;;;;;;;5.97;3.10;;;;;;;22.43;60.08;101345.25;4869440;28;123897;-67
2021/08/22 00:42:01;;;;;;;4.15;3.08;;;;;;;22.41;59.98;101341.81;4864200;28;123743;-67
2021/08/22 00:44:28;;;;;;;5.38;3.20;;;;;;;22.40;59.99;101336.59;4862867;28;114338;-67
2021/08/22 00:46:56;;;;;;;3.90;2.95;;;;;;;22.39;60.15;101337.56;4857985;28;113010;-68
2021/08/22 00:49:24;;;;;;;3.55;2.83;;;;;;;22.38;60.13;101330.44;4856059;28;124626;-68
2021/08/22 00:51:51;;;;;;;3.92;2.83;;;;;;;22.38;60.31;101335.84;4865720;28;123901;-68
2021/08/22 00:54:18;;;;;;;4.07;2.90;;;;;;;22.39;60.31;101337.56;4867976;28;114447;-67
2021/08/22 00:56:46;;;;;;;6.32;2.90;;;;;;;22.37;60.22;101331.44;4869416;28;113475;-68
2021/08/22 00:59:15;;;;;;;3.30;2.60;;;;;;;22.34;60.29;101330.72;4870568;28;124145;-67
2021/08/22 01:01:47;;;;;;;3.35;2.30;;;;;;;22.34;60.35;101329.88;4866962;28;123760;-67
2021/08/22 01:04:18;;;;;;;3.33;2.10;;;;;;;22.32;60.40;101332.72;4861029;28;115145;-67
2021/08/22 01:06:57;;;;;;;4.15;2.60;;;;;;;22.30;60.24;101334.69;4862710;28;115092;-67
2021/08/22 01:09:40;;;;;;;3.10;2.30;;;;;;;22.28;60.42;101331.28;4862056;28;124248;-67
2021/08/22 01:12:23;;;;;;;4.35;2.30;;;;;;;22.26;60.27;101332.38;4862344;28;124767;-67
2021/08/22 01:14:56;;;;;;;4.45;2.40;;;;;;;22.24;60.39;101329.78;4859464;28;114325;-68
2021/08/22 01:17:28;;;;;;;4.10;2.63;;;;;;;22.22;60.45;101331.75;4873258;28;114364;-67
2021/08/22 01:20:20;;;;;;;3.70;2.45;;;;;;;22.19;60.39;101332.03;4868278;28;124457;-67
2021/08/22 01:22:50;;;;;;;3.45;2.35;;;;;;;22.17;60.50;101329.47;4864218;28;123954;-67
2021/08/22 01:25:19;;;;;;;3.17;2.40;;;;;;;22.16;60.51;101332.28;4860022;28;114344;-67
2021/08/22 01:27:48;;;;;;;3.72;2.47;;;;;;;22.15;60.48;101327.88;4864305;28;114161;-67
2021/08/22 01:30:18;;;;;;;3.95;2.40;;;;;;;22.13;60.46;101327.16;4859951;28;124152;-67
2021/08/22 01:32:47;;;;;;;3.28;2.40;;;;;;;22.12;60.54;101325.44;4864966;28;124868;-67
2021/08/22 01:35:22;;;;;;;4.82;2.40;;;;;;;22.09;60.58;101321.16;4864276;28;114499;-68
2021/08/22 01:37:51;;;;;;;3.23;2.40;;;;;;;22.09;60.31;101323.00;4855303;28;113606;-68
2021/08/22 01:40:20;;;;;;;4.40;2.75;;;;;;;22.08;60.40;101329.41;4845313;28;124028;-68
2021/08/22 01:42:49;;;;;;;3.92;2.53;;;;;;;22.07;60.45;101324.97;4854362;28;124574;-68
2021/08/22 01:45:20;;;;;;;4.03;2.50;;;;;;;22.05;60.52;101329.66;4864209;28;114690;-68
2021/08/22 01:47:49;;;;;;;5.82;2.58;;;;;;;22.04;60.55;101325.25;4863070;28;113331;-68
2021/08/22 01:50:21;;;;;;;3.42;2.78;;;;;;;22.02;60.63;101330.78;4867270;28;124387;-68
2021/08/22 01:52:55;;;;;;;4.80;2.90;;;;;;;22.01;60.67;101328.22;4861230;28;123735;-68
2021/08/22 01:55:22;;;;;;;4.23;2.70;;;;;;;22.00;60.45;101326.50;4850156;28;115074;-68
2021/08/22 01:57:49;;;;;;;6.38;2.80;;;;;;;21.99;60.60;101324.81;4867124;28;115704;-68
2021/08/22 02:00:17;;;;;;;4.43;2.97;;;;;;;21.99;60.72;101327.50;4863165;28;124335;-68
2021/08/22 02:02:54;;;;;;;4.10;2.53;;;;;;;21.99;60.77;101330.19;4863079;28;127577;-68
2021/08/22 02:05:22;;;;;;;4.82;2.55;;;;;;;21.97;60.72;101327.63;4869010;28;114130;-68
2021/08/22 02:07:50;;;;;;;3.47;2.63;;;;;;;21.96;60.76;101332.16;4862325;28;114183;-68
2021/08/22 02:10:31;;;;;;;5.20;2.78;;;;;;;21.96;60.75;101332.16;4862063;28;123914;-68
2021/08/22 02:13:01;;;;;;;3.63;2.50;;;;;;;21.92;60.78;101336.09;4870197;28;123760;-67
2021/08/22 02:15:32;;;;;;;3.90;2.53;;;;;;;21.88;60.81;101333.81;4870311;28;114980;-68
2021/08/22 02:18:04;;;;;;;4.10;2.90;;;;;;;21.86;60.96;101325.84;4867768;28;113997;-67
2021/08/22 02:20:32;;;;;;;4.80;3.10;;;;;;;21.84;60.94;101316.19;4849098;28;123140;-67
2021/08/22 02:23:01;;;;;;;4.82;3.50;;;;;;;21.81;61.11;101328.06;4870944;28;123748;-67
2021/08/22 02:25:31;;;;;;;6.53;3.65;;;;;;;21.81;61.05;101328.06;4864209;28;114279;-67
2021/08/22 02:28:00;;;;;;;6.22;4.30;;;;;;;21.80;61.08;101326.38;4847389;23;1130942;-67
2021/08/22 02:30:32;;;;;;;7.85;4.97;;;;;;;21.77;61.29;101329.31;4850874;28;124514;-67
2021/08/22 02:33:02;;;;;;;9.90;6.15;;;;;;;21.76;61.28;101330.31;4864523;28;124190;-67
2021/08/22 02:35:29;;;;;;;11.75;7.90;;;;;;;21.73;61.25;101331.41;4855807;28;113588;-67
2021/08/22 02:37:56;;;;;;;15.73;9.38;;;;;;;21.73;61.36;101335.97;4869028;28;114076;-67
2021/08/22 02:40:24;;;;;;;14.55;9.73;;;;;;;21.71;61.45;101337.94;4869120;28;123901;-67
2021/08/22 02:42:51;;;;;;;15.68;9.88;;;;;;;21.71;61.54;101338.78;4860574;28;124131;-67
2021/08/22 02:45:19;;;;;;;17.17;10.60;;;;;;;21.71;61.50;101337.94;4864099;28;115260;-68
2021/08/22 02:47:46;;;;;;;16.40;10.05;;;;;;;21.70;61.66;101336.19;4842878;28;114834;-68
2021/08/22 02:50:13;;;;;;;17.33;10.48;;;;;;;21.69;61.62;101339.91;4865317;28;124783;-68
2021/08/22 02:52:41;;;;;;;19.52;11.35;;;;;;;21.68;61.66;101343.56;4868468;28;123836;-68
2021/08/22 02:55:08;;;;;;;19.30;11.20;;;;;;;21.68;61.75;101338.16;4852171;28;113252;-68
2021/08/22 02:57:35;;;;;;;20.45;12.18;;;;;;;21.67;61.78;101336.47;4851521;28;114624;-68
2021/08/22 03:00:03;;;;;;;20.95;12.15;;;;;;;21.67;61.79;101336.47;4857781;28;124072;-68
2021/08/22 03:02:31;;;;;;;19.95;11.75;;;;;;;21.66;61.93;101330.25;4865267;28;124781;-68
2021/08/22 03:04:58;;;;;;;23.15;12.25;;;;;;;21.66;61.86;101334.75;4844225;28;114350;-68
2021/08/22 03:07:25;;;;;;;19.80;11.82;;;;;;;21.64;61.89;101336.72;4869371;28;114047;-68
2021/08/22 03:09:52;;;;;;;20.73;12.13;;;;;;;21.65;61.93;101327.66;4854230;28;124373;-68
2021/08/22 03:12:19;;;;;;;21.80;12.65;;;;;;;21.63;61.77;101329.66;4867834;28;123761;-68
2021/08/22 03:14:47;;;;;;;23.95;13.02;;;;;;;21.62;61.84;101327.91;4870569;28;114283;-68
2021/08/22 03:17:14;;;;;;;24.27;13.05;;;;;;;21.61;61.88;101331.63;4861049;28;113129;-68
2021/08/22 03:19:41;;;;;;;25.60;13.88;;;;;;;21.60;61.86;101324.50;4869213;28;124855;-68
2021/08/22 03:22:08;;;;;;;24.58;13.25;;;;;;;21.58;61.94;101328.16;4876683;28;125095;-68
2021/08/22 03:24:35;;;;;;;25.98;14.68;;;;;;;21.57;61.97;101321.06;4851186;28;113399;-68
2021/08/22 03:27:02;;;;;;;28.60;15.10;;;;;;;21.57;61.90;101326.47;4871609;28;114139;-68
2021/08/22 03:29:29;;;;;;;28.25;15.68;;;;;;;21.56;61.91;101313.97;4866585;28;124258;-68
2021/08/22 03:31:57;;;;;;;29.90;15.77;;;;;;;21.55;62.04;101312.25;4866221;28;124102;-69
2021/08/22 03:34:24;;;;;;;28.23;15.93;;;;;;;21.53;61.90;101308.84;4862182;28;116015;-69
2021/08/22 03:36:51;;;;;;;28.10;16.05;;;;;;;21.52;62.07;101307.13;4868536;28;114416;-68
2021/08/22 03:39:24;;;;;;;30.42;16.45;;;;;;;21.51;62.13;101305.44;4850648;28;124347;-68
2021/08/22 03:41:51;;;;;;;29.75;17.42;;;;;;;21.49;62.08;101299.31;4854054;28;122872;-70
2021/08/22 03:44:18;;;;;;;30.92;17.55;;;;;;;21.48;62.12;101300.28;4871719;28;114379;-71
2021/08/22 03:46:45;;;;;;;32.88;18.08;;;;;;;21.48;62.22;101308.38;4866905;28;113586;-70
2021/08/22 03:49:13;;;;;;;35.05;18.38;;;;;;;21.48;62.32;101316.47;4863647;28;123158;-71
2021/08/22 03:51:40;;;;;;;33.53;18.10;;;;;;;21.49;62.53;101312.78;4871748;28;123985;-70
2021/08/22 03:54:07;;;;;;;35.70;18.95;;;;;;;21.49;62.32;101311.91;4871789;28;114384;-70
2021/08/22 03:56:34;;;;;;;33.97;18.65;;;;;;;21.49;62.33;101315.50;4872067;28;114386;-70
2021/08/22 03:59:06;;;;;;;35.78;19.27;;;;;;;21.50;62.38;101314.47;4865175;28;124649;-69
2021/08/22 04:01:35;;;;;;;41.25;20.30;;;;;;;21.51;62.36;101310.81;4868241;28;124593;-70
2021/08/22 04:04:14;;;;;;;40.47;21.13;;;;;;;21.50;62.45;101313.63;4860658;28;114518;-70
2021/08/22 04:06:49;;;;;;;41.83;21.42;;;;;;;21.51;62.34;101321.59;4857211;28;113547;-70
2021/08/22 04:09:17;;;;;;;39.67;21.70;;;;;;;21.50;62.48;101319.88;4871853;28;124474;-70
2021/08/22 04:11:46;;;;;;;40.75;21.80;;;;;;;21.50;62.52;101330.66;4873556;28;123741;-70
2021/08/22 04:14:14;;;;;;;41.53;20.75;;;;;;;21.50;62.42;101327.97;4869563;28;114113;-70
2021/08/22 04:16:42;;;;;;;40.90;21.67;;;;;;;21.50;62.66;101330.66;4862171;28;113949;-70
2021/08/22 04:19:09;;;;;;;41.95;21.63;;;;;;;21.50;62.74;101330.66;4859944;28;123843;-70
2021/08/22 04:21:36;;;;;;;46.13;23.63;;;;;;;21.50;62.61;101325.25;4859112;28;123707;-70
2021/08/22 04:24:03;;;;;;;45.75;22.48;;;;;;;21.51;62.71;101324.28;4864538;28;115121;-70
2021/08/22 04:26:31;;;;;;;43.42;22.95;;;;;;;21.51;62.63;101332.38;4874445;28;115333;-69
2021/08/22 04:28:59;;;;;;;46.63;23.35;;;;;;;21.51;62.77;101332.38;4873000;28;123974;-70
2021/08/22 04:31:27;;;;;;;48.35;23.42;;;;;;;21.52;62.75;101333.22;4872236;28;124082;-70
2021/08/22 04:33:54;;;;;;;48.28;24.35;;;;;;;21.51;62.67;101343.16;4872395;28;115973;-70
2021/08/22 04:36:21;;;;;;;46.88;23.05;;;;;;;21.51;62.86;101348.56;4870000;28;114082;-70
2021/08/22 04:38:48;;;;;;;48.47;23.75;;;;;;;21.53;62.81;101334.94;4869534;28;124131;-70
2021/08/22 04:41:20;;;;;;;46.22;22.58;;;;;;;21.52;62.84;101334.06;4871043;28;124685;-70
2021/08/22 04:43:53;;;;;;;47.95;22.67;;;;;;;21.50;62.72;101333.34;4851982;28;114411;-70
2021/08/22 04:46:21;;;;;;;43.45;21.92;;;;;;;21.51;62.82;101337.78;4870241;28;113907;-69
2021/08/22 04:48:48;;;;;;;45.80;22.92;;;;;;;21.52;62.97;101344.00;4859454;28;124814;-69
2021/08/22 04:51:16;;;;;;;44.67;21.92;;;;;;;21.52;62.85;101339.47;4864245;28;124697;-69
2021/08/22 04:53:43;;;;;;;42.63;22.25;;;;;;;21.51;62.84;101345.88;4869897;28;114324;-69
2021/08/22 04:56:10;;;;;;;45.38;21.67;;;;;;;21.52;62.80;101354.78;4872708;28;114382;-69
2021/08/22 04:58:37;;;;;;;41.97;21.70;;;;;;;21.50;62.86;101352.22;4839910;28;124211;-69
2021/08/22 05:01:05;;;;;;;45.50;22.15;;;;;;;21.50;62.91;101349.53;4867853;28;124412;-69
2021/08/22 05:03:32;;;;;;;44.55;21.52;;;;;;;21.50;62.80;101352.22;4866952;28;114254;-69
2021/08/22 05:06:00;;;;;;;43.25;21.80;;;;;;;21.49;62.75;101355.91;4871288;28;114317;-69
2021/08/22 05:08:27;;;;;;;43.92;22.08;;;;;;;21.49;62.78;101361.31;4853507;28;122769;-69
2021/08/22 05:10:55;;;;;;;45.10;22.02;;;;;;;21.47;62.68;101355.16;4854346;28;123987;-70
2021/08/22 05:13:23;;;;;;;42.08;21.83;;;;;;;21.45;62.98;101354.44;4864844;28;115366;-69
2021/08/22 05:15:51;;;;;;;43.50;22.45;;;;;;;21.43;62.79;101350.97;4870932;28;114821;-69
2021/08/22 05:18:18;;;;;;;39.35;20.98;;;;;;;21.44;62.79;101358.13;4852053;28;123763;-69
2021/08/22 05:20:45;;;;;;;40.75;21.02;;;;;;;21.44;62.88;101358.13;4873052;28;124712;-69
2021/08/22 05:23:13;;;;;;;39.95;21.40;;;;;;;21.42;62.71;101351.97;4860713;28;114366;-70
2021/08/22 05:25:41;;;;;;;40.95;21.65;;;;;;;21.41;62.79;101357.50;4867368;28;114140;-70
2021/08/22 05:28:08;;;;;;;39.35;20.40;;;;;;;21.38;62.83;101361.31;4865238;28;123927;-70
2021/08/22 05:30:36;;;;;;;39.35;20.55;;;;;;;21.37;62.81;101362.28;4860881;28;123761;-70
2021/08/22 05:33:04;;;;;;;43.38;22.20;;;;;;;21.36;62.89;101365.94;4863200;28;114387;-70
2021/08/22 05:35:31;;;;;;;39.83;21.15;;;;;;;21.36;62.95;101363.25;4861649;28;115011;-70
2021/08/22 05:37:58;;;;;;;41.75;21.33;;;;;;;21.37;62.91;101363.13;4856138;28;124461;-69
2021/08/22 05:40:26;;;;;;;36.53;20.38;;;;;;;21.38;62.94;101366.69;4866435;28;124069;-69
2021/08/22 05:42:53;;;;;;;35.88;19.75;;;;;;;21.38;62.95;101369.38;4866163;28;114153;-70
2021/08/22 05:45:21;;;;;;;36.47;20.58;;;;;;;21.36;62.83;101371.31;4865396;28;114094;-69
2021/08/22 05:47:48;;;;;;;37.45;20.48;;;;;;;21.35;62.92;101359.69;4871951;28;124792;-70
2021/08/22 05:50:16;;;;;;;38.70;20.70;;;;;;;21.34;62.81;101370.59;4874128;28;123888;-69
2021/08/22 05:52:43;;;;;;;35.95;19.70;;;;;;;21.35;63.00;101369.63;4870756;28;113583;-69
2021/08/22 05:55:10;;;;;;;38.55;20.80;;;;;;;21.35;62.80;101361.53;4865855;28;114314;-69
2021/08/22 05:57:38;;;;;;;40.97;20.13;;;;;;;21.36;62.97;101365.94;4869677;28;124430;-69
2021/08/22 06:00:06;;;;;;;41.13;21.60;;;;;;;21.37;63.08;101362.28;4876884;28;123605;-69
2021/08/22 06:02:39;;;;;;;39.00;21.35;;;;;;;21.38;62.69;101364.00;4863528;28;115251;-69
2021/08/22 06:05:07;;;;;;;37.55;21.50;;;;;;;21.41;62.93;101369.13;4855616;28;114282;-69
2021/08/22 06:07:34;;;;;;;38.65;21.05;;;;;;;21.43;63.11;101371.69;4871187;28;124763;-69
2021/08/22 06:10:06;;;;;;;42.90;22.02;;;;;;;21.45;62.96;101370.59;4851411;28;123247;-69
2021/08/22 06:12:33;;;;;;;38.70;21.98;;;;;;;21.46;62.95;101366.94;4866787;28;114294;-70
2021/08/22 06:15:02;;;;;;;40.13;22.13;;;;;;;21.50;62.99;101379.16;4856687;28;114160;-69
2021/08/22 06:17:29;;;;;;;39.63;21.95;;;;;;;21.52;62.64;101366.41;4864607;28;123843;-69
2021/08/22 06:19:57;;;;;;;41.05;22.90;;;;;;;21.53;62.93;101381.63;4848932;29;123822;-70
2021/08/22 06:22:24;;;;;;;40.92;21.98;;;;;;;21.58;62.99;101376.69;4857021;28;114502;-71
2021/08/22 06:24:51;;;;;;;36.92;21.38;;;;;;;21.61;62.96;101374.75;4855394;28;114040;-70
2021/08/22 06:27:19;;;;;;;38.38;21.33;;;;;;;21.65;62.83;101365.41;4856923;28;124107;-70
2021/08/22 06:29:46;;;;;;;38.20;22.02;;;;;;;21.68;62.79;101378.63;4857665;28;124717;-70
2021/08/22 06:32:13;;;;;;;37.63;20.60;;;;;;;21.67;62.71;101369.69;4856855;28;114443;-70
2021/08/22 06:34:40;;;;;;;38.55;21.58;;;;;;;21.69;62.59;101377.66;4866506;28;114397;-70
2021/08/22 06:37:09;;;;;;;38.13;21.55;;;;;;;21.73;62.71;101373.69;4854888;28;124320;-70
2021/08/22 06:39:41;;;;;;;36.60;20.23;;;;;;;21.75;62.59;101371.72;4872303;28;123827;-70
2021/08/22 06:42:09;;;;;;;33.78;19.80;;;;;;;21.79;62.52;101373.19;4871049;28;114180;-69
2021/08/22 06:44:39;;;;;;;34.42;20.50;;;;;;;21.78;62.43;101377.72;4865315;28;114731;-70
2021/08/22 06:47:12;;;;;;;34.45;19.65;;;;;;;21.79;62.38;101373.19;4861940;28;124420;-70
2021/08/22 06:49:40;;;;;;;33.15;20.25;;;;;;;21.79;62.23;101373.19;4865695;28;123949;-70
2021/08/22 06:52:08;;;;;;;34.08;18.98;;;;;;;21.82;62.28;101372.09;4864789;28;115436;-70
2021/08/22 06:54:38;;;;;;;31.95;18.33;;;;;;;21.84;62.46;101376.34;4860261;28;115011;-70
2021/08/22 06:57:05;;;;;;;29.95;17.13;;;;;;;21.89;62.47;101373.28;4859101;28;123626;-70
2021/08/22 06:59:32;;;;;;;31.48;17.27;;;;;;;21.94;62.29;101377.31;4857575;28;124823;-70
2021/08/22 07:02:00;;;;;;;33.47;17.05;;;;;;;21.99;62.44;101373.34;4864148;28;114586;-70
2021/08/22 07:04:28;;;;;;;29.05;17.13;;;;;;;22.02;62.09;101378.47;4846053;28;113932;-70
2021/08/22 07:07:05;;;;;;;29.52;17.42;;;;;;;22.04;62.06;101379.19;4876220;28;124086;-71
2021/08/22 07:09:32;;;;;;;27.45;16.58;;;;;;;22.09;62.21;101385.06;4868712;28;124688;-71
2021/08/22 07:12:23;;;;;;;30.20;16.83;;;;;;;22.14;62.16;101383.69;4874063;28;114977;-71
2021/08/22 07:14:50;;;;;;;25.92;15.88;;;;;;;22.19;62.01;101391.41;4877512;28;113862;-70
2021/08/22 07:17:20;;;;;;;24.48;14.60;;;;;;;22.24;62.11;101389.13;4861019;28;123982;-70
2021/08/22 07:19:48;;;;;;;24.73;14.82;;;;;;;22.29;61.80;101397.72;4858926;28;124820;-71
2021/08/22 07:22:16;;;;;;;24.63;14.75;;;;;;;22.35;61.94;101391.78;4873789;28;113523;-71
2021/08/22 07:24:43;;;;;;;21.25;13.60;;;;;;;22.41;61.81;101392.25;4876350;28;113943;-71
2021/08/22 07:27:10;;;;;;;19.95;13.05;;;;;;;22.45;61.62;101401.81;4844696;28;123327;-71
2021/08/22 07:29:38;;;;;;;22.10;13.02;;;;;;;22.47;61.54;101399.81;4870199;28;123799;-71
2021/08/22 07:32:05;;;;;;;16.92;11.73;;;;;;;22.49;61.35;101404.13;4873467;28;114472;-71
2021/08/22 07:34:34;;;;;;;21.55;12.38;;;;;;;22.51;61.32;101390.50;4864205;28;114303;-71
2021/08/22 07:37:02;;;;;;;17.27;12.52;;;;;;;22.56;61.47;101390.91;4876150;28;124108;-71
2021/08/22 07:39:29;;;;;;;20.33;12.45;;;;;;;22.62;61.52;101387.72;4876348;28;124496;-72
2021/08/22 07:42:00;;;;;;;19.63;12.18;;;;;;;22.70;61.43;101390.56;4870101;28;114320;-71
2021/08/22 07:44:27;;;;;;;17.35;12.35;;;;;;;22.76;61.29;101396.44;4873782;28;115101;-71
2021/08/22 07:46:54;;;;;;;19.05;12.35;;;;;;;22.81;61.19;101402.28;4874810;28;124576;-71
2021/08/22 07:49:21;;;;;;;19.20;12.50;;;;;;;22.83;60.89;101400.28;4872683;28;123722;-70
2021/08/22 07:51:49;;;;;;;19.75;12.85;;;;;;;22.85;60.79;101404.59;4873156;28;114340;-70
2021/08/22 07:54:16;;;;;;;20.60;12.48;;;;;;;22.90;60.80;101406.88;4859717;28;113308;-70
2021/08/22 07:56:44;;;;;;;20.10;13.60;;;;;;;22.94;60.74;101403.78;4875270;28;125068;-70
2021/08/22 07:59:11;;;;;;;18.25;12.68;;;;;;;22.98;60.79;101406.19;4856373;28;124860;-70
2021/08/22 08:01:38;;;;;;;18.15;12.48;;;;;;;23.02;60.64;101413.91;4875572;28;114299;-70
2021/08/22 08:04:06;;;;;;;17.92;11.85;;;;;;;23.08;60.51;101410.66;4867518;28;114757;-70
2021/08/22 08:06:34;;;;;;;16.63;12.05;;;;;;;23.11;60.49;101410.41;4859490;28;123924;-70
2021/08/22 08:09:01;;;;;;;15.13;10.15;;;;;;;23.15;60.17;101405.59;4856517;28;124148;-70
2021/08/22 08:11:30;;;;;;;16.05;10.55;;;;;;;23.17;60.25;101408.13;4869127;28;114180;-70
2021/08/22 08:13:58;;;;;;;14.88;9.95;;;;;;;23.23;60.01;101413.00;4856427;28;113774;-70
2021/08/22 08:16:26;;;;;;;12.95;9.07;;;;;;;23.31;60.41;101415.84;4859023;28;123895;-71
2021/08/22 08:18:53;;;;;;;14.82;9.50;;;;;;;23.44;60.42;101411.03;4869381;28;123794;-70
2021/08/22 08:21:20;;;;;;;11.27;8.35;;;;;;;23.62;60.47;101413.06;4866288;28;114341;-70
2021/08/22 08:23:48;;;;;;;10.80;8.52;;;;;;;23.76;60.02;101415.38;4848731;28;114314;-71
2021/08/22 08:26:15;;;;;;;13.90;9.35;;;;;;;23.92;59.78;101408.56;4858760;28;124819;-70
2021/08/22 08:28:43;;;;;;;12.27;8.73;;;;;;;24.04;59.81;101407.44;4856396;28;123976;-70
2021/08/22 08:31:13;;;;;;;12.00;8.55;;;;;;;24.15;59.42;101404.56;4875170;28;115399;-71
2021/08/22 08:33:40;;;;;;;9.23;7.15;;;;;;;24.19;58.76;101406.00;4860972;28;114772;-70
2021/08/22 08:36:08;;;;;;;9.80;6.97;;;;;;;24.22;58.74;101411.13;4874050;28;124288;-70
2021/08/22 08:38:42;;;;;;;10.07;6.70;;;;;;;24.23;58.54;101412.81;4866601;28;124319;-71
2021/08/22 08:41:10;;;;;;;8.18;6.55;;;;;;;24.22;58.49;101413.84;4865803;28;114975;-70
2021/08/22 08:43:38;;;;;;;6.75;4.90;;;;;;;24.22;58.25;101427.38;4873106;28;114301;-71
2021/08/22 08:46:09;;;;;;;5.57;4.57;;;;;;;24.23;58.27;101418.22;4864878;28;124294;-71
2021/08/22 08:48:40;;;;;;;5.53;4.35;;;;;;;24.25;58.22;101418.09;4864161;28;123745;-70
2021/08/22 08:51:19;;;;;;;6.13;4.35;;;;;;;24.27;58.01;101424.22;4864689;28;114720;-71
2021/08/22 08:53:53;;;;;;;5.63;4.63;;;;;;;24.27;57.57;101418.81;4844371;28;112974;-70
2021/08/22 08:56:25;;;;;;;6.07;4.78;;;;;;;24.24;57.80;101424.50;4859920;28;124692;-70
2021/08/22 08:58:52;;;;;;;6.35;4.50;;;;;;;24.20;57.49;101423.91;4857589;28;124257;-70
2021/08/22 09:01:19;;;;;;;6.43;4.80;;;;;;;24.15;57.27;101426.22;4858687;28;114058;-70
2021/08/22 09:04:26;;;;;;;5.63;4.40;;;;;;;24.10;57.31;101420.38;4862054;28;113913;-71
2021/08/22 09:07:05;;;;;;;6.50;5.00;;;;;;;24.07;57.61;101434.19;4869772;28;124126;-71
2021/08/22 09:09:42;;;;;;;6.53;4.35;;;;;;;24.06;57.42;101427.09;4844545;28;123338;-71
2021/08/22 09:12:27;;;;;;;6.05;4.18;;;;;;;24.01;57.49;101429.34;4874066;28;114347;-71
2021/08/22 09:15:16;;;;;;;7.80;4.50;;;;;;;24.00;57.31;101433.06;4871943;28;115100;-71
2021/08/22 09:18:20;;;;;;;6.85;4.88;;;;;;;23.96;57.33;101431.63;4864971;28;124896;-71
2021/08/22 09:21:33;;;;;;;6.80;5.43;;;;;;;23.92;57.56;101441.03;4873560;28;124709;-70
2021/08/22 09:24:31;;;;;;;8.98;6.32;;;;;;;23.84;57.65;101439.88;4817202;28;115085;-70
2021/08/22 09:27:20;;;;;;;9.23;6.15;;;;;;;23.74;57.62;101433.59;4871591;28;114923;-70
2021/08/22 09:30:18;;;;;;;9.05;6.32;;;;;;;23.63;57.89;101431.00;4872557;28;124613;-70
2021/08/22 09:33:23;;;;;;;10.85;7.15;;;;;;;23.55;58.39;101444.38;4862629;28;123176;-70
2021/08/22 09:36:18;;;;;;;10.57;6.90;;;;;;;23.46;58.39;101436.09;4859320;28;113233;-69
2021/08/22 09:39:23;;;;;;;10.07;6.87;;;;;;;23.37;58.74;101447.72;4871506;28;113933;-69
2021/08/22 09:42:27;;;;;;;9.38;7.03;;;;;;;23.32;58.94;101433.81;4872592;28;124073;-70
2021/08/22 09:45:32;;;;;;;12.52;8.02;;;;;;;23.32;59.25;101439.22;4874210;28;124497;-69
2021/08/22 09:48:18;;;;;;;12.07;8.18;;;;;;;23.34;59.32;101437.22;4874450;28;115033;-69
2021/08/22 09:51:22;;;;;;;13.52;8.55;;;;;;;23.39;59.76;101440.34;4862303;28;113945;-69
2021/08/22 09:54:20;;;;;;;13.45;8.70;;;;;;;23.44;59.81;101438.09;4867683;28;123869;-69
2021/08/22 09:57:25;;;;;;;10.00;7.82;;;;;;;23.50;59.89;101437.53;4870654;28;123953;-70
2021/08/22 10:00:33;;;;;;;12.07;8.18;;;;;;;23.58;59.71;101438.69;4873716;28;114396;-69
2021/08/22 10:03:24;;;;;;;11.68;8.30;;;;;;;23.67;59.89;101432.44;4872221;28;113970;-69
2021/08/22 10:06:22;;;;;;;12.65;9.15;;;;;;;23.81;60.11;101429.38;4862835;28;123999;-69
2021/08/22 10:09:04;;;;;;;12.63;8.43;;;;;;;24.02;59.96;101431.06;4871115;28;123507;-69
2021/08/22 10:11:34;;;;;;;11.90;8.68;;;;;;;24.16;59.58;101438.75;4872032;28;114254;-69
2021/08/22 10:14:01;;;;;;;11.93;8.02;;;;;;;24.25;59.07;101432.47;4870968;28;113804;-69
2021/08/22 10:16:37;;;;;;;10.25;7.13;;;;;;;24.33;58.49;101428.19;4859041;28;124077;-69
2021/08/22 10:19:10;;;;;;;8.75;6.88;;;;;;;24.37;58.26;101429.59;4869024;28;123972;-69
2021/08/22 10:21:37;;;;;;;9.27;6.97;;;;;;;24.41;57.95;101425.59;4871463;28;115219;-70
2021/08/22 10:24:11;;;;;;;10.18;7.03;;;;;;;24.43;58.00;101429.03;4870996;28;115259;-69
2021/08/22 10:26:47;;;;;;;9.63;5.95;;;;;;;24.46;57.77;101431.44;4875826;28;124473;-70
2021/08/22 10:29:31;;;;;;;9.63;5.22;;;;;;;24.47;57.94;101430.47;4870648;28;123934;-69
2021/08/22 10:31:58;;;;;;;7.57;4.95;;;;;;;24.48;57.36;101432.16;4873781;28;114340;-69
2021/08/22 10:34:26;;;;;;;8.30;4.82;;;;;;;24.48;57.56;101427.59;4870494;28;114687;-69
2021/08/22 10:36:54;;;;;;;6.38;3.90;;;;;;;24.48;57.40;101426.75;4874774;28;123881;-69
2021/08/22 10:39:28;;;;;;;7.13;3.97;;;;;;;24.47;57.31;101425.03;4868963;28;124226;-69
2021/08/22 10:41:55;;;;;;;7.18;3.63;;;;;;;24.47;56.75;101420.47;4870409;28;114175;-69
2021/08/22 10:44:34;;;;;;;5.00;3.88;;;;;;;24.46;56.83;101417.91;4869267;28;113804;-70
2021/08/22 10:47:04;;;;;;;6.75;3.50;;;;;;;24.46;56.89;101423.31;4863126;28;124868;-69
2021/08/22 10:49:50;;;;;;;6.80;3.70;;;;;;;24.46;56.95;101428.75;4861115;28;123166;-70
2021/08/22 10:52:25;;;;;;;5.75;3.60;;;;;;;24.48;56.48;101424.03;4862678;28;114249;-70
2021/08/22 10:55:10;;;;;;;6.05;3.95;;;;;;;24.45;56.39;101421.63;4859138;28;114662;-70
2021/08/22 10:57:49;;;;;;;;;;;;;;;24.43;56.95;101423.59;4862752;28;124818;-70
2021/08/22 11:00:19;;;;;;;5.88;3.83;;;;;;;24.47;56.47;101425.03;4870455;28;124928;-70
2021/08/22 11:02:46;;;;;;;4.22;3.28;;;;;;;24.53;56.70;101420.94;4864287;28;114682;-70
2021/08/22 11:05:16;;;;;;;6.82;3.60;;;;;;;24.58;56.29;101433.03;4867896;28;114669;-70
2021/08/22 11:07:48;;;;;;;5.00;3.50;;;;;;;24.64;56.18;101437.84;4867753;28;124068;-70
2021/08/22 11:10:18;;;;;;;6.15;3.30;;;;;;;24.68;56.17;101423.00;4860800;28;123787;-71
2021/08/22 11:12:45;;;;;;;7.03;3.72;;;;;;;24.72;56.17;101429.00;4860168;28;115105;-70
2021/08/22 11:15:24;;;;;;;5.55;3.67;;;;;;;24.79;55.91;101423.81;4844331;28;113914;-70
2021/08/22 11:17:54;;;;;;;6.88;3.40;;;;;;;24.84;55.63;101432.38;4862015;28;125468;-70
2021/08/22 11:20:24;;;;;;;6.25;4.05;;;;;;;24.88;55.33;101428.34;4863065;28;123942;-70
2021/08/22 11:23:03;;;;;;;5.65;3.70;;;;;;;24.87;55.35;101421.25;4860205;28;114167;-70
2021/08/22 11:25:31;;;;;;;6.05;3.70;;;;;;;24.90;55.20;101426.34;4850581;28;112846;-70
2021/08/22 11:28:08;;;;;;;6.45;3.55;;;;;;;24.91;55.02;101417.22;4870289;28;123960;-70